Time;durP1;ratioP1;P1;durP2;ratioP2;P2;SDS_P1;SDS_P2;PMS_P1;PMS_P2;Temp;Humidity;BMP_temperature;BMP_pressure;BME280_temperature;BME280_humidity;BME280_pressure;Samples;Min_cycle;Max_cycle;Signal;HPM_P1;HPM_P2
2022/04/19 00:02:13;;;;;;;14.55;6.72;;;;;;;6.40;68.06;100990.34;6005451;28;20380;-70
2022/04/19 00:05:09;;;;;;;16.77;7.17;;;;;;;6.63;67.05;100978.13;6005993;28;20046;-69
2022/04/19 00:08:05;;;;;;;13.45;6.45;;;;;;;6.86;67.02;100985.13;6005678;28;20081;-69
2022/04/19 00:11:02;;;;;;;21.30;7.15;;;;;;;6.97;66.86;100982.53;6004755;28;20061;-70
2022/04/19 00:13:57;;;;;;;15.20;6.65;;;;;;;6.95;67.02;100977.38;6006184;28;20412;-70
2022/04/19 00:16:52;;;;;;;14.60;6.60;;;;;;;7.04;66.25;100974.03;6005084;28;20043;-69
2022/04/19 00:19:48;;;;;;;19.67;6.53;;;;;;;6.94;67.20;100973.06;6004958;28;20038;-70
2022/04/19 00:22:43;;;;;;;13.93;7.07;;;;;;;6.86;68.27;100970.16;5981785;28;20287;-69
2022/04/19 00:25:40;;;;;;;17.38;5.82;;;;;;;6.82;67.38;100968.69;6004821;28;20467;-70
2022/04/19 00:28:36;;;;;;;12.07;6.20;;;;;;;6.82;67.01;100958.16;6005029;28;20467;-70
2022/04/19 00:31:31;;;;;;;14.73;6.28;;;;;;;6.97;67.85;100962.28;6004291;28;20042;-69
2022/04/19 00:34:27;;;;;;;12.20;5.60;;;;;;;6.69;68.07;100953.94;6007144;28;20035;-70
2022/04/19 00:37:23;;;;;;;15.85;6.13;;;;;;;6.55;68.20;100955.81;6005253;28;20109;-70
2022/04/19 00:40:18;;;;;;;17.17;6.07;;;;;;;6.47;67.63;100957.31;6004590;28;20053;-70
2022/04/19 00:43:16;;;;;;;16.50;5.50;;;;;;;6.32;68.02;100959.31;6004940;28;20047;-69
2022/04/19 00:46:11;;;;;;;15.43;5.85;;;;;;;6.19;68.87;100961.19;5971537;28;20121;-70
2022/04/19 00:49:06;;;;;;;14.77;5.97;;;;;;;6.09;69.24;100961.97;6005536;28;20050;-69
2022/04/19 00:52:02;;;;;;;15.43;6.27;;;;;;;6.09;69.05;100960.13;6004013;28;20386;-69
2022/04/19 00:54:59;;;;;;;15.25;5.72;;;;;;;6.10;69.16;100958.34;6004766;28;20035;-70
2022/04/19 00:57:54;;;;;;;13.88;5.60;;;;;;;5.92;69.33;100956.09;6004200;28;20418;-70
2022/04/19 01:00:50;;;;;;;11.80;5.05;;;;;;;6.00;69.51;100952.94;6003851;28;20047;-70
2022/04/19 01:03:45;;;;;;;14.23;5.90;;;;;;;6.03;69.75;100957.13;6004048;28;20027;-69
2022/04/19 01:06:40;;;;;;;12.97;5.80;;;;;;;6.37;69.18;100946.66;6004568;28;20401;-70
2022/04/19 01:09:36;;;;;;;11.97;5.13;;;;;;;6.39;68.84;100946.50;6004878;28;20385;-69
2022/04/19 01:15:49;;;;;;;12.65;5.15;;;;;;;6.06;70.36;100943.75;6005085;28;20050;-70
2022/04/19 01:18:45;;;;;;;12.13;5.10;;;;;;;6.09;70.51;100944.34;6003503;28;20034;-69
2022/04/19 01:21:51;;;;;;;10.98;4.82;;;;;;;5.82;70.75;100949.78;5986384;28;20039;-70
2022/04/19 01:24:46;;;;;;;11.82;4.60;;;;;;;5.78;72.37;100953.59;6004261;28;20027;-70
2022/04/19 01:27:42;;;;;;;11.00;4.87;;;;;;;5.42;72.96;100948.31;6004354;28;20043;-70
2022/04/19 01:30:38;;;;;;;10.43;4.68;;;;;;;5.18;73.02;100942.97;6003809;28;20434;-69
2022/04/19 01:33:33;;;;;;;11.88;4.63;;;;;;;5.14;73.13;100941.47;6003517;28;20031;-70
2022/04/19 01:36:29;;;;;;;11.73;4.40;;;;;;;4.99;74.17;100952.22;6004353;28;20046;-70
2022/04/19 01:42:38;;;;;;;;;;;;;;;5.27;73.58;100942.31;6003689;28;20027;-69
2022/04/19 01:45:34;;;;;;;10.07;4.53;;;;;;;5.46;72.90;100941.06;6004057;28;19918;-70
2022/04/19 01:48:30;;;;;;;16.85;5.20;;;;;;;5.52;73.02;100943.25;6003150;28;20409;-70
2022/04/19 01:51:25;;;;;;;9.85;4.40;;;;;;;5.68;71.78;100942.03;6006054;28;20042;-70
2022/04/19 01:54:21;;;;;;;8.63;4.50;;;;;;;5.85;72.26;100938.22;6003193;28;20034;-70
2022/04/19 01:57:16;;;;;;;8.00;3.88;;;;;;;5.93;71.66;100931.47;6002976;28;20033;-70
2022/04/19 02:00:12;;;;;;;11.40;4.33;;;;;;;5.86;72.06;100929.41;6002900;28;20034;-70
2022/04/19 02:03:07;;;;;;;12.32;4.63;;;;;;;5.92;71.86;100927.13;6008980;28;20310;-69
2022/04/19 02:06:10;;;;;;;12.48;4.32;;;;;;;5.38;73.06;100928.44;6006742;28;20027;-69
2022/04/19 02:09:06;;;;;;;11.65;4.82;;;;;;;5.07;73.36;100931.50;6002822;28;20398;-70
2022/04/19 02:12:01;;;;;;;9.23;4.10;;;;;;;4.64;74.76;100929.19;6002235;28;20034;-71
2022/04/19 02:14:57;;;;;;;7.60;3.78;;;;;;;4.73;75.75;100931.16;6003173;28;20033;-70
2022/04/19 02:17:52;;;;;;;12.43;4.93;;;;;;;4.34;75.95;100933.84;6003294;28;20039;-70
2022/04/19 02:20:47;;;;;;;10.33;5.03;;;;;;;4.91;75.61;100925.63;6001722;28;20053;-70
2022/04/19 02:23:43;;;;;;;11.53;4.53;;;;;;;4.44;75.02;100940.16;6002649;28;20487;-69
2022/04/19 02:26:38;;;;;;;10.85;4.70;;;;;;;4.19;75.51;100945.34;6004491;28;20062;-69
2022/04/19 02:29:33;;;;;;;13.93;5.03;;;;;;;3.92;77.23;100934.84;6016386;28;20034;-69
2022/04/19 02:32:29;;;;;;;10.57;5.03;;;;;;;3.72;78.00;100939.69;6002341;28;20063;-69
2022/04/19 02:35:27;;;;;;;12.00;5.20;;;;;;;3.54;79.35;100942.50;6003018;28;20038;-70
2022/04/19 02:38:23;;;;;;;13.43;5.47;;;;;;;3.60;79.64;100944.75;6001909;28;20043;-70
2022/04/19 02:41:18;;;;;;;20.60;5.25;;;;;;;3.68;79.83;100940.81;6001913;28;20371;-69
2022/04/19 02:44:14;;;;;;;11.17;4.93;;;;;;;3.81;79.99;100949.56;6003714;28;20039;-70
2022/04/19 02:47:10;;;;;;;10.85;5.68;;;;;;;4.11;80.14;100939.75;6014210;28;20030;-70
2022/04/19 02:50:06;;;;;;;14.68;5.78;;;;;;;4.71;78.78;100937.47;6001909;28;20045;-69
2022/04/19 02:53:02;;;;;;;11.20;5.05;;;;;;;4.66;77.42;100929.91;6002023;28;20046;-70
2022/04/19 02:55:57;;;;;;;16.17;6.57;;;;;;;4.10;77.04;100924.97;6002375;28;20391;-70
2022/04/19 02:58:52;;;;;;;12.43;6.87;;;;;;;3.66;78.46;100940.06;6002606;28;20402;-70
2022/04/19 03:01:48;;;;;;;15.30;5.57;;;;;;;3.35;79.98;100941.97;6001425;28;20282;-70
2022/04/19 03:04:44;;;;;;;12.20;5.38;;;;;;;3.52;80.32;100944.41;6002572;28;20055;-70
2022/04/19 03:07:39;;;;;;;11.10;5.50;;;;;;;3.16;81.49;100940.56;6002014;28;20042;-70
2022/04/19 03:10:34;;;;;;;15.63;5.60;;;;;;;2.88;83.15;100939.59;6001315;28;20534;-70
2022/04/19 03:13:31;;;;;;;13.07;5.83;;;;;;;2.77;83.40;100938.59;6001933;28;20066;-70
2022/04/19 03:16:27;;;;;;;10.88;4.85;;;;;;;3.04;83.39;100944.78;6002082;28;20525;-70
2022/04/19 03:19:24;;;;;;;11.38;4.88;;;;;;;2.99;84.00;100952.91;6002454;28;20058;-70
2022/04/19 03:22:19;;;;;;;13.77;5.30;;;;;;;3.05;84.13;100940.38;6003524;28;20097;-70
2022/04/19 03:28:28;;;;;;;11.05;4.43;;;;;;;3.84;82.14;100938.88;6006788;28;20027;-70
2022/04/19 03:31:23;;;;;;;11.97;4.77;;;;;;;3.54;80.50;100939.03;6005801;28;20038;-70
2022/04/19 03:34:19;;;;;;;9.23;4.70;;;;;;;3.39;81.08;100942.63;6007458;28;20073;-70
2022/04/19 03:37:15;;;;;;;8.23;3.87;;;;;;;3.08;81.86;100938.41;6006710;28;20038;-70
2022/04/19 03:40:10;;;;;;;8.13;3.70;;;;;;;2.81;82.64;100948.78;6003853;28;20113;-69
2022/04/19 03:43:07;;;;;;;10.82;3.83;;;;;;;3.10;82.65;100952.25;6006972;28;20097;-70
2022/04/19 03:46:02;;;;;;;6.85;3.42;;;;;;;3.28;82.73;100951.16;6022771;28;20058;-69
2022/04/19 03:48:58;;;;;;;7.57;3.10;;;;;;;3.53;82.05;100967.03;6006552;28;20066;-70
2022/04/19 03:51:53;;;;;;;8.37;3.63;;;;;;;3.84;80.92;100958.09;6005860;28;20035;-69
2022/04/19 03:54:48;;;;;;;7.68;3.55;;;;;;;4.03;79.02;100944.63;6005954;28;20034;-70
2022/04/19 03:57:44;;;;;;;9.15;3.17;;;;;;;4.22;78.80;100947.75;6016418;28;20037;-70
2022/04/19 04:00:39;;;;;;;9.45;3.28;;;;;;;4.40;78.28;100940.47;6005593;28;20039;-70
2022/04/19 04:03:35;;;;;;;7.63;3.67;;;;;;;4.37;77.41;100951.19;6005894;28;20391;-70
2022/04/19 04:06:30;;;;;;;6.70;3.00;;;;;;;4.28;76.93;100944.75;6006456;28;20121;-70
2022/04/19 04:09:32;;;;;;;6.82;3.40;;;;;;;4.34;77.34;100952.22;6006126;28;20034;-69
2022/04/19 04:12:27;;;;;;;8.55;3.67;;;;;;;4.30;77.17;100948.09;6005581;28;20445;-69
2022/04/19 04:15:23;;;;;;;8.63;2.78;;;;;;;4.25;77.46;100946.72;6006253;28;20039;-70
2022/04/19 04:18:18;;;;;;;7.68;3.30;;;;;;;4.29;76.70;100953.47;6005899;28;20026;-70
2022/04/19 04:21:14;;;;;;;5.80;3.30;;;;;;;4.20;77.09;100947.88;6005346;28;20090;-70
2022/04/19 04:24:09;;;;;;;6.50;2.88;;;;;;;4.28;77.42;100952.63;5988320;28;20089;-70
2022/04/19 04:27:05;;;;;;;6.07;3.30;;;;;;;4.31;76.41;100960.28;6005293;28;20093;-70
2022/04/19 04:30:00;;;;;;;6.47;3.25;;;;;;;4.35;76.83;100961.75;6004850;28;20066;-69
2022/04/19 04:32:56;;;;;;;9.27;3.50;;;;;;;4.21;76.84;100957.41;6005319;28;20118;-70
2022/04/19 04:35:51;;;;;;;6.20;2.65;;;;;;;4.20;77.35;100947.88;6005096;28;20490;-70
2022/04/19 04:38:47;;;;;;;7.43;3.30;;;;;;;4.22;76.82;100960.88;6005487;28;20039;-70
2022/04/19 04:41:42;;;;;;;7.30;3.63;;;;;;;4.14;76.83;100961.38;5996978;28;20062;-69
2022/04/19 04:44:37;;;;;;;6.27;3.43;;;;;;;4.15;76.87;100967.47;6010239;28;20496;-69
2022/04/19 04:50:46;;;;;;;7.03;3.00;;;;;;;4.47;76.45;100970.63;6004413;28;20450;-70
2022/04/19 04:53:42;;;;;;;5.57;2.80;;;;;;;4.56;75.07;100964.78;6005030;28;20035;-70
2022/04/19 04:56:37;;;;;;;5.05;2.50;;;;;;;4.68;76.67;100970.03;5983743;28;20086;-70
2022/04/19 04:59:33;;;;;;;6.30;2.50;;;;;;;4.46;76.06;100972.41;5976873;28;20419;-70
2022/04/19 05:02:29;;;;;;;5.22;2.42;;;;;;;4.29;75.42;100975.31;5980952;28;20122;-69
2022/04/19 05:05:24;;;;;;;4.75;2.40;;;;;;;4.14;76.37;100971.03;5996662;28;20043;-70
2022/04/19 05:08:20;;;;;;;5.13;2.43;;;;;;;4.11;75.82;100976.47;5981956;28;20042;-69
2022/04/19 05:11:15;;;;;;;4.73;2.50;;;;;;;4.18;74.93;100967.28;5981136;29;20275;-69
2022/04/19 05:14:10;;;;;;;4.83;2.40;;;;;;;4.30;74.50;100968.25;5980519;29;20070;-70
2022/04/19 05:17:06;;;;;;;5.13;2.70;;;;;;;4.27;74.60;100971.09;5989814;28;20394;-69
2022/04/19 05:20:01;;;;;;;4.80;2.30;;;;;;;4.35;73.72;100972.25;5987672;28;20287;-69
2022/04/19 05:22:57;;;;;;;3.95;2.13;;;;;;;4.52;74.11;100969.38;5985346;28;20034;-70
2022/04/19 05:25:53;;;;;;;4.97;2.80;;;;;;;4.57;72.92;100976.94;5977568;28;20050;-70
2022/04/19 05:28:48;;;;;;;7.05;2.10;;;;;;;4.67;72.15;100960.47;6000988;28;20046;-69
2022/04/19 05:31:43;;;;;;;3.92;1.80;;;;;;;4.89;71.76;100977.44;6001433;28;20027;-71
2022/04/19 05:34:39;;;;;;;6.80;2.70;;;;;;;5.08;70.82;100973.44;5996555;28;20506;-70
2022/04/19 05:37:37;;;;;;;5.97;2.07;;;;;;;4.95;71.23;100971.75;5979280;28;20039;-69
2022/04/19 05:40:32;;;;;;;4.82;2.20;;;;;;;5.24;70.91;100973.25;5978976;28;20364;-69
2022/04/19 05:43:28;;;;;;;4.30;2.03;;;;;;;5.11;69.89;100969.78;5978833;28;20070;-69
2022/04/19 05:46:23;;;;;;;3.95;2.47;;;;;;;5.00;70.47;100969.69;5991537;28;20038;-69
2022/04/19 05:49:18;;;;;;;6.87;2.10;;;;;;;5.07;69.74;100968.31;6003960;28;20265;-69
2022/04/19 05:52:14;;;;;;;5.37;2.27;;;;;;;5.14;68.85;100970.41;5984686;28;20093;-69
2022/04/19 05:55:09;;;;;;;3.85;1.88;;;;;;;5.28;67.85;100964.19;5980667;29;20039;-69
2022/04/19 05:58:05;;;;;;;3.50;1.70;;;;;;;5.78;68.35;100968.53;5981669;28;20074;-68
2022/04/19 06:01:01;;;;;;;4.43;1.95;;;;;;;6.01;68.30;100970.38;5998292;28;20031;-68
2022/04/19 06:07:11;;;;;;;5.10;2.35;;;;;;;5.90;66.04;100968.53;5980371;29;20031;-68
2022/04/19 06:10:07;;;;;;;4.20;2.00;;;;;;;6.55;64.59;100974.25;5979618;29;20023;-69
2022/04/19 06:13:02;;;;;;;4.00;1.95;;;;;;;6.41;63.92;100974.41;5979754;29;20106;-68
2022/04/19 06:15:58;;;;;;;3.97;2.05;;;;;;;6.44;63.97;100973.38;5985554;28;20035;-69
2022/04/19 06:18:53;;;;;;;6.03;2.20;;;;;;;6.22;64.26;100973.28;5979908;29;20039;-67
2022/04/19 06:21:49;;;;;;;4.57;1.67;;;;;;;7.44;61.39;100968.31;5979498;29;20285;-68
2022/04/19 06:24:44;;;;;;;4.20;2.00;;;;;;;8.19;58.04;100964.84;5979866;29;20466;-69
2022/04/19 06:27:39;;;;;;;5.18;2.00;;;;;;;8.49;56.72;100961.53;5979727;29;20043;-68
2022/04/19 06:30:35;;;;;;;5.13;2.20;;;;;;;7.45;58.49;100965.56;5979010;29;20042;-69
2022/04/19 06:33:31;;;;;;;4.10;1.98;;;;;;;8.01;56.13;100976.91;5978870;29;20478;-69
2022/04/19 06:36:27;;;;;;;3.83;2.20;;;;;;;8.12;57.36;100966.34;5981295;28;20090;-69
2022/04/19 06:39:22;;;;;;;4.53;2.20;;;;;;;8.02;58.46;100981.22;5976474;29;20030;-71
2022/04/19 06:42:17;;;;;;;5.00;2.20;;;;;;;8.49;55.87;100992.41;5990475;28;20097;-71
2022/04/19 06:45:12;;;;;;;4.40;2.10;;;;;;;8.11;54.80;100982.28;5981071;28;20031;-71
2022/04/19 06:48:08;;;;;;;3.77;2.20;;;;;;;8.40;54.56;100982.63;5979385;29;20042;-70
2022/04/19 06:51:04;;;;;;;3.88;1.77;;;;;;;8.87;54.34;100977.69;5980436;28;20045;-71
2022/04/19 06:53:59;;;;;;;5.38;2.33;;;;;;;8.61;53.25;100988.78;5979404;29;20500;-70
2022/04/19 06:56:54;;;;;;;4.20;1.80;;;;;;;9.08;52.01;100971.56;5978390;28;20039;-70
2022/04/19 06:59:50;;;;;;;5.00;2.10;;;;;;;8.87;52.50;100985.63;5980564;28;20046;-70
2022/04/19 07:02:45;;;;;;;4.97;2.13;;;;;;;9.27;51.06;100972.50;5977991;29;20390;-70
2022/04/19 07:05:40;;;;;;;3.97;2.07;;;;;;;9.43;49.96;100974.69;5979292;29;20039;-70
2022/04/19 07:08:36;;;;;;;4.10;1.70;;;;;;;9.90;49.15;100978.47;5979171;29;20039;-70
2022/04/19 07:11:31;;;;;;;3.17;1.77;;;;;;;9.66;48.37;100975.31;5977750;29;20039;-71
2022/04/19 07:14:26;;;;;;;8.63;1.90;;;;;;;9.24;48.01;100975.41;5987599;28;20034;-71
2022/04/19 07:17:22;;;;;;;6.00;1.87;;;;;;;9.71;47.99;100981.06;5983077;28;20267;-70
2022/04/19 07:26:45;;;;;;;3.58;1.65;;;;;;;9.98;45.68;100971.53;5979156;29;20035;-70
2022/04/19 07:29:40;;;;;;;4.70;2.08;;;;;;;10.31;44.35;100974.81;5979320;28;20055;-69
2022/04/19 07:32:36;;;;;;;4.80;2.00;;;;;;;10.53;44.24;100971.91;6001874;28;20113;-71
2022/04/19 07:35:31;;;;;;;4.25;1.90;;;;;;;10.28;44.44;100975.94;5985069;28;20027;-68
2022/04/19 07:38:27;;;;;;;4.40;2.10;;;;;;;10.19;45.13;100987.38;5978795;29;20073;-70
2022/04/19 07:41:22;;;;;;;3.73;1.93;;;;;;;9.94;44.41;100979.91;5981671;28;20266;-70
2022/04/19 07:44:18;;;;;;;4.63;2.00;;;;;;;10.07;45.33;100985.78;5983282;28;20082;-72
2022/04/19 07:47:14;;;;;;;3.50;1.90;;;;;;;10.36;45.32;100981.38;5997401;28;20486;-71
2022/04/19 07:50:10;;;;;;;3.53;1.83;;;;;;;10.63;44.56;100976.25;5991607;28;20043;-71
2022/04/19 07:53:05;;;;;;;6.20;2.00;;;;;;;10.91;43.66;100984.31;5977572;29;20050;-69
2022/04/19 07:56:02;;;;;;;3.20;1.75;;;;;;;10.79;44.41;100986.28;5978809;29;20037;-69
2022/04/19 07:58:57;;;;;;;5.18;1.60;;;;;;;11.20;42.38;100983.28;5986140;28;20065;-70
2022/04/19 08:01:52;;;;;;;5.37;1.60;;;;;;;11.42;40.73;100971.47;5978248;29;20479;-71
2022/04/19 08:04:48;;;;;;;2.83;1.23;;;;;;;11.72;40.14;100981.88;5983813;28;20035;-72
2022/04/19 08:07:43;;;;;;;3.60;1.70;;;;;;;11.61;39.40;100982.03;5978747;28;20043;-71
2022/04/19 08:10:38;;;;;;;3.60;1.47;;;;;;;11.77;40.07;100982.28;5981042;29;20431;-69
2022/04/19 08:13:34;;;;;;;4.17;1.60;;;;;;;11.24;39.93;100979.38;5992885;28;20613;-70
2022/04/19 08:16:29;;;;;;;2.92;1.42;;;;;;;11.29;39.51;100970.97;5983372;28;20174;-70
2022/04/19 08:19:25;;;;;;;4.47;1.50;;;;;;;11.37;37.95;100973.75;5981358;29;20043;-70
2022/04/19 08:22:21;;;;;;;4.03;1.50;;;;;;;11.57;39.14;100980.66;5981248;29;20044;-69
2022/04/19 08:25:16;;;;;;;3.83;1.50;;;;;;;11.72;36.58;100983.69;6001193;28;20168;-70
2022/04/19 08:28:11;;;;;;;3.42;1.75;;;;;;;11.38;37.47;100980.75;5989508;28;20462;-70
2022/04/19 08:31:07;;;;;;;4.97;1.60;;;;;;;11.50;37.55;100986.69;5985448;28;20023;-69
2022/04/19 08:34:02;;;;;;;3.33;1.33;;;;;;;11.88;37.89;100979.44;5984637;28;20043;-70
2022/04/19 08:36:57;;;;;;;3.93;1.70;;;;;;;11.26;38.10;100981.88;5981123;29;20764;-70
2022/04/19 08:39:53;;;;;;;4.65;1.55;;;;;;;11.57;39.06;100982.47;5986512;28;20271;-70
2022/04/19 08:42:48;;;;;;;5.67;1.60;;;;;;;11.98;37.05;100983.88;5985182;28;20480;-70
2022/04/19 08:45:44;;;;;;;3.57;1.60;;;;;;;11.82;37.58;100985.31;5980817;28;20034;-70
2022/04/19 08:48:40;;;;;;;4.18;1.80;;;;;;;11.53;37.65;100984.59;5981924;28;20522;-70
2022/04/19 08:51:39;;;;;;;4.28;1.83;;;;;;;12.00;38.77;100974.75;5983837;28;20490;-70
2022/04/19 08:57:48;;;;;;;5.03;1.77;;;;;;;12.53;35.51;100970.31;5986754;28;20039;-70
2022/04/19 09:00:44;;;;;;;4.50;1.87;;;;;;;12.67;36.86;100976.94;5992962;28;20121;-70
2022/04/19 09:03:41;;;;;;;6.43;2.17;;;;;;;12.42;36.34;100977.69;5992167;28;20303;-70
2022/04/19 09:06:53;;;;;;;5.82;2.40;;;;;;;12.94;36.85;100974.16;5980904;29;20067;-70
2022/04/19 09:09:59;;;;;;;5.45;2.25;;;;;;;13.17;37.46;100976.34;5992222;28;20065;-70
2022/04/19 09:13:04;;;;;;;5.50;2.60;;;;;;;12.94;36.99;100983.97;5980611;28;20044;-70
2022/04/19 09:16:04;;;;;;;6.85;2.53;;;;;;;13.09;36.89;100983.31;5985441;28;20376;-70
2022/04/19 09:19:00;;;;;;;6.13;2.70;;;;;;;13.16;37.07;100977.34;5979955;28;20111;-70
2022/04/19 09:21:55;;;;;;;6.55;2.97;;;;;;;13.06;36.60;100982.75;5979791;29;20475;-70
2022/04/19 09:24:51;;;;;;;6.38;2.33;;;;;;;12.83;36.74;100982.38;5981586;28;20035;-70
2022/04/19 09:27:48;;;;;;;9.93;3.23;;;;;;;12.86;36.69;100981.25;5984540;28;20122;-70
2022/04/19 09:30:51;;;;;;;9.80;3.55;;;;;;;13.08;37.07;100973.63;5978872;29;20078;-70
2022/04/19 09:33:57;;;;;;;8.70;3.20;;;;;;;13.50;36.20;100967.56;5980061;29;20617;-71
2022/04/19 09:36:54;;;;;;;5.47;2.90;;;;;;;13.59;35.68;100970.09;5980371;29;20118;-70
2022/04/19 09:39:52;;;;;;;8.82;3.33;;;;;;;14.20;35.05;100967.19;5935055;28;20503;-71
2022/04/19 09:42:49;;;;;;;7.70;3.20;;;;;;;14.10;35.22;100968.31;6004644;28;20031;-71
2022/04/19 09:45:58;;;;;;;8.82;3.40;;;;;;;14.09;34.03;100959.47;6015967;28;20066;-70
2022/04/19 09:48:53;;;;;;;9.10;3.78;;;;;;;13.84;34.80;100967.53;6002226;28;20106;-70
2022/04/19 09:51:48;;;;;;;8.33;3.00;;;;;;;13.86;35.77;100971.72;6004347;28;20065;-70
2022/04/19 09:54:44;;;;;;;5.77;2.90;;;;;;;13.70;35.13;100961.84;6002871;28;20394;-70
2022/04/19 09:57:40;;;;;;;6.53;2.90;;;;;;;13.74;33.79;100967.69;6002397;28;20046;-70
2022/04/19 10:00:35;;;;;;;5.75;2.65;;;;;;;13.99;33.92;100953.47;6002711;28;20676;-70
2022/04/19 10:10:02;;;;;;;5.35;1.90;;;;;;;14.39;33.38;100967.91;5994831;28;20677;-70
2022/04/19 10:12:58;;;;;;;3.63;1.90;;;;;;;14.55;32.85;100967.94;6003070;28;20075;-71
2022/04/19 10:15:54;;;;;;;5.97;2.10;;;;;;;14.60;33.16;100961.09;5985440;28;20070;-69
2022/04/19 10:18:50;;;;;;;7.68;2.15;;;;;;;14.98;32.28;100964.94;6002174;28;20035;-70
2022/04/19 10:21:47;;;;;;;4.68;2.10;;;;;;;15.04;31.81;100958.06;6001979;28;20090;-71
2022/04/19 10:24:47;;;;;;;4.55;1.90;;;;;;;14.67;31.59;100964.78;5984948;28;20050;-71
2022/04/19 10:27:43;;;;;;;7.18;2.58;;;;;;;14.55;32.34;100967.94;6002941;28;20037;-71
2022/04/19 10:30:47;;;;;;;6.03;2.58;;;;;;;14.49;31.74;100958.75;6001595;28;20479;-70
2022/04/19 10:33:42;;;;;;;5.13;2.13;;;;;;;14.71;32.25;100963.44;6002548;28;20035;-70
2022/04/19 10:36:39;;;;;;;5.22;2.22;;;;;;;14.71;30.72;100973.28;6002598;28;20046;-70
2022/04/19 10:39:44;;;;;;;4.97;2.17;;;;;;;14.55;30.96;100966.09;6002129;28;20045;-70
2022/04/19 10:42:40;;;;;;;5.45;2.17;;;;;;;14.81;30.43;100958.75;6002003;28;20051;-70
2022/04/19 10:45:36;;;;;;;4.80;1.70;;;;;;;14.46;30.92;100972.41;6014313;28;20030;-72
2022/04/19 10:48:31;;;;;;;3.88;1.55;;;;;;;14.70;31.58;100966.28;6002492;28;20065;-70
2022/04/19 10:51:27;;;;;;;3.97;2.03;;;;;;;14.85;31.65;100964.59;6001453;28;20097;-70
2022/04/19 10:54:59;;;;;;;4.90;1.80;;;;;;;14.89;31.01;100961.41;6001908;28;20085;-70
2022/04/19 10:58:16;;;;;;;3.35;1.80;;;;;;;15.27;30.10;100965.22;6001697;28;20102;-70
2022/04/19 11:01:30;;;;;;;3.08;1.42;;;;;;;15.46;30.50;100964.88;6001427;28;20035;-69
2022/04/19 11:04:35;;;;;;;4.38;1.63;;;;;;;15.67;30.20;100956.28;6001726;28;20061;-69
2022/04/19 11:07:41;;;;;;;2.33;1.60;;;;;;;15.96;32.62;100945.78;5998579;28;20041;-70
2022/04/19 11:10:37;;;;;;;2.45;1.45;;;;;;;15.91;30.56;100950.00;6000568;28;20474;-70
2022/04/19 11:13:38;;;;;;;2.90;1.50;;;;;;;15.83;30.81;100947.38;6001893;28;20058;-70
2022/04/19 11:16:37;;;;;;;8.85;1.77;;;;;;;16.09;31.53;100934.50;5989580;28;20050;-69
2022/04/19 11:19:33;;;;;;;3.13;1.33;;;;;;;15.90;30.27;100945.66;6001808;28;20047;-70
2022/04/19 11:22:43;;;;;;;3.08;1.73;;;;;;;15.42;30.91;100939.47;6001803;28;20387;-69
2022/04/19 11:25:39;;;;;;;4.78;1.58;;;;;;;15.59;30.33;100936.78;6001409;28;20081;-70
2022/04/19 11:28:35;;;;;;;3.78;1.58;;;;;;;15.72;30.07;100935.22;6001826;28;20391;-69
2022/04/19 11:31:30;;;;;;;3.43;1.40;;;;;;;15.21;31.12;100954.38;5983751;28;20042;-69
2022/04/19 11:34:25;;;;;;;5.60;1.27;;;;;;;15.59;29.71;100947.47;5984550;28;20042;-69
2022/04/19 11:37:21;;;;;;;2.73;1.43;;;;;;;15.49;29.75;100943.13;6001495;28;20047;-69
2022/04/19 11:46:51;;;;;;;4.85;1.20;;;;;;;15.87;30.46;100935.31;6006404;28;20125;-70
2022/04/19 11:49:48;;;;;;;2.38;1.20;;;;;;;15.58;30.01;100935.09;6005334;28;20030;-69
2022/04/19 11:52:43;;;;;;;4.60;1.35;;;;;;;15.61;29.96;100935.59;5987770;28;20478;-69
2022/04/19 11:55:49;;;;;;;2.70;1.23;;;;;;;15.26;30.90;100923.47;6005671;28;20042;-68
2022/04/19 11:58:52;;;;;;;2.80;1.10;;;;;;;15.62;29.96;100931.09;6005498;28;20035;-69
2022/04/19 12:01:49;;;;;;;2.22;1.13;;;;;;;15.51;29.92;100934.97;6005327;28;20463;-69
2022/04/19 12:04:54;;;;;;;2.78;1.30;;;;;;;15.97;28.91;100922.56;6004781;28;20462;-69
2022/04/19 12:07:50;;;;;;;1.98;0.95;;;;;;;16.16;29.63;100924.78;6003435;28;20066;-70
2022/04/19 12:10:45;;;;;;;2.42;0.80;;;;;;;15.82;28.78;100917.09;6004598;28;20045;-69
2022/04/19 12:13:42;;;;;;;2.22;1.00;;;;;;;15.67;30.02;100928.72;6006517;28;20444;-68
2022/04/19 12:16:39;;;;;;;2.50;0.90;;;;;;;15.32;29.16;100925.47;6005088;28;20034;-69
2022/04/19 12:19:39;;;;;;;2.42;1.02;;;;;;;15.56;30.18;100926.41;6004856;28;20073;-69
2022/04/19 12:22:35;;;;;;;7.43;1.63;;;;;;;15.31;29.92;100915.78;6004447;28;20046;-69
2022/04/19 12:25:30;;;;;;;2.33;1.17;;;;;;;15.98;29.43;100910.84;6004363;28;20043;-72
2022/04/19 12:28:45;;;;;;;4.00;1.10;;;;;;;15.97;29.63;100909.19;6004433;28;20050;-69
2022/04/19 12:31:43;;;;;;;3.40;1.00;;;;;;;16.32;28.99;100897.06;6003589;28;20089;-69
2022/04/19 12:34:39;;;;;;;2.40;1.10;;;;;;;16.22;29.88;100907.19;6003967;28;20070;-69
2022/04/19 12:37:35;;;;;;;2.40;1.30;;;;;;;15.85;29.11;100906.06;6005025;28;20085;-70
2022/04/19 12:40:30;;;;;;;2.30;1.00;;;;;;;15.72;29.16;100902.28;6003122;28;20085;-70
2022/04/19 12:43:46;;;;;;;2.77;1.13;;;;;;;16.03;28.74;100903.94;6004334;28;20097;-71
2022/04/19 12:46:44;;;;;;;4.22;1.30;;;;;;;16.39;27.94;100898.84;6009627;28;20321;-70
2022/04/19 12:49:44;;;;;;;4.72;1.60;;;;;;;16.27;27.12;100894.94;6002688;28;20033;-70
2022/04/19 12:52:41;;;;;;;2.35;1.13;;;;;;;16.37;28.14;100890.16;6003298;28;20066;-69
2022/04/19 12:55:36;;;;;;;2.78;1.30;;;;;;;16.22;28.55;100889.28;6002309;28;20064;-71
2022/04/19 12:58:41;;;;;;;2.30;0.97;;;;;;;16.16;28.73;100887.31;6004223;28;20143;-70
2022/04/19 13:01:37;;;;;;;2.40;1.38;;;;;;;16.28;28.19;100880.53;6013785;28;20054;-70
2022/04/19 13:04:32;;;;;;;3.13;1.17;;;;;;;16.31;28.63;100888.19;6007538;28;20027;-70
2022/04/19 13:13:59;;;;;;;2.25;1.13;;;;;;;16.48;28.16;100886.25;6004184;28;20042;-70
2022/04/19 13:16:55;;;;;;;4.37;1.30;;;;;;;16.49;27.73;100875.38;6004205;28;20046;-70
2022/04/19 13:19:50;;;;;;;2.03;1.20;;;;;;;16.28;27.88;100875.19;6005342;28;20457;-70
2022/04/19 13:22:46;;;;;;;3.15;1.25;;;;;;;16.58;27.79;100882.31;6003282;28;20038;-70
2022/04/19 13:25:43;;;;;;;2.57;1.13;;;;;;;16.80;27.39;100885.13;6003780;28;20483;-70
2022/04/19 13:28:38;;;;;;;2.85;1.30;;;;;;;16.74;26.97;100873.31;6003808;28;20061;-70
2022/04/19 13:31:34;;;;;;;4.23;1.37;;;;;;;16.54;27.97;100869.50;6003575;28;20034;-70
2022/04/19 13:34:30;;;;;;;4.18;1.23;;;;;;;16.46;27.39;100866.84;6003754;28;20041;-70
2022/04/19 13:40:39;;;;;;;6.57;1.48;;;;;;;16.45;27.41;100860.66;6003321;28;20402;-70
2022/04/19 13:43:34;;;;;;;2.77;1.10;;;;;;;16.72;27.58;100867.31;6003694;28;20043;-70
2022/04/19 13:46:30;;;;;;;2.53;1.20;;;;;;;16.88;28.46;100866.31;6006664;28;20046;-70
2022/04/19 13:49:25;;;;;;;2.60;1.10;;;;;;;17.16;26.93;100856.63;6003369;28;20047;-71
2022/04/19 13:52:21;;;;;;;3.10;0.90;;;;;;;16.75;27.89;100860.75;6002669;28;20314;-70
2022/04/19 13:55:18;;;;;;;1.93;0.90;;;;;;;16.62;27.50;100862.22;6003630;28;20074;-70
2022/04/19 13:58:14;;;;;;;2.38;0.85;;;;;;;16.58;27.67;100860.06;6004315;28;20027;-70
2022/04/19 14:01:09;;;;;;;3.85;1.02;;;;;;;16.36;27.75;100856.38;6002927;28;20039;-70
2022/04/19 14:04:05;;;;;;;2.50;1.03;;;;;;;16.42;27.75;100854.81;6003309;28;20081;-70
2022/04/19 14:07:02;;;;;;;2.38;1.30;;;;;;;16.51;27.08;100843.88;6003081;28;20445;-70
2022/04/19 14:09:57;;;;;;;3.97;1.27;;;;;;;16.72;27.64;100845.03;6003403;28;20506;-70
2022/04/19 14:12:52;;;;;;;2.27;1.00;;;;;;;16.69;27.62;100846.25;6002628;28;20069;-71
2022/04/19 14:15:48;;;;;;;3.40;1.20;;;;;;;16.59;27.42;100848.34;6003027;28;20034;-70
2022/04/19 14:18:44;;;;;;;2.65;1.20;;;;;;;16.79;26.59;100851.34;6003237;28;20043;-70
2022/04/19 14:21:39;;;;;;;2.22;1.20;;;;;;;17.04;25.78;100850.09;6002410;28;20471;-71
2022/04/19 14:24:34;;;;;;;5.83;1.50;;;;;;;17.40;26.34;100829.53;6002503;28;20070;-70
2022/04/19 14:27:30;;;;;;;3.85;1.13;;;;;;;16.98;25.61;100842.78;6003362;28;20039;-69
2022/04/19 14:33:39;;;;;;;2.55;1.10;;;;;;;17.22;25.66;100842.50;6002517;28;20386;-70
2022/04/19 14:36:34;;;;;;;2.43;1.10;;;;;;;17.07;26.25;100838.97;6003039;28;20066;-70